KCEF

Westover ARB/Metropolitan Airport

Springfield/Chicopee, Massachusetts, USA
METAR KCEF 180256Z AUTO 00000KT 10SM CLR M06/M10 A3024 RMK AO2 SLP250 T10621103 58002
Observed Flight Rules
Dec-18 @ 02:56 UTC (9 minutes ago) Visual Flight Rules
Wind Visibility Clouds
Calm 10 miles
  • Clear skies
Temperatures Readings
Current -6°C / 21°F
Dewpoint -10°C / 14°F
Humidity 74%
Altimeter 30.24" Hg
Pressure 1025 hPa
Elevation 75
METAR KCEF 180256Z AUTO 00000KT 10SM CLR M06/M10 A3024 RMK AO2 SLP250 T10621103 58002
Observed Flight Rules
Dec-18 @ 02:56 UTC
(9 minutes ago)
VFR
Wind Visibility
Calm 10 miles
Clouds
  • Clear skies
Temperature Dewpoint
-6°C / 21°F -10°C / 14°F
Humidity Altimeter Pressure
74% 30.24" Hg 1025 hPa